sensor_id;sensor_type;location;lat;lon;timestamp;P1;durP1;ratioP1;P2;durP2;ratioP2
36501;SDS011;25393;46.108;3.390;2023-03-23T00:01:23;2.70;;;1.92;;
36501;SDS011;25393;46.108;3.390;2023-03-23T00:03:52;3.85;;;1.83;;
36501;SDS011;25393;46.108;3.390;2023-03-23T00:06:19;4.35;;;2.10;;
36501;SDS011;25393;46.108;3.390;2023-03-23T00:08:49;5.90;;;2.22;;
36501;SDS011;25393;46.108;3.390;2023-03-23T00:11:22;5.13;;;1.65;;
36501;SDS011;25393;46.108;3.390;2023-03-23T00:13:51;4.43;;;2.58;;
36501;SDS011;25393;46.108;3.390;2023-03-23T00:16:21;5.43;;;2.03;;
36501;SDS011;25393;46.108;3.390;2023-03-23T00:21:26;8.40;;;1.58;;
36501;SDS011;25393;46.108;3.390;2023-03-23T00:24:08;5.72;;;1.52;;
36501;SDS011;25393;46.108;3.390;2023-03-23T00:26:36;3.92;;;1.40;;
36501;SDS011;25393;46.108;3.390;2023-03-23T00:29:05;2.03;;;1.40;;
36501;SDS011;25393;46.108;3.390;2023-03-23T00:31:32;4.30;;;1.83;;
36501;SDS011;25393;46.108;3.390;2023-03-23T00:34:00;3.13;;;1.17;;
36501;SDS011;25393;46.108;3.390;2023-03-23T00:36:29;2.95;;;1.50;;
36501;SDS011;25393;46.108;3.390;2023-03-23T00:39:00;4.15;;;1.08;;
36501;SDS011;25393;46.108;3.390;2023-03-23T00:41:27;4.05;;;1.75;;
36501;SDS011;25393;46.108;3.390;2023-03-23T00:43:54;3.50;;;1.63;;
36501;SDS011;25393;46.108;3.390;2023-03-23T00:46:21;2.80;;;1.25;;
36501;SDS011;25393;46.108;3.390;2023-03-23T00:48:47;7.47;;;1.50;;
36501;SDS011;25393;46.108;3.390;2023-03-23T00:51:13;5.38;;;1.40;;
36501;SDS011;25393;46.108;3.390;2023-03-23T00:53:39;4.05;;;1.42;;
36501;SDS011;25393;46.108;3.390;2023-03-23T00:56:05;2.67;;;1.48;;
36501;SDS011;25393;46.108;3.390;2023-03-23T00:58:32;6.45;;;1.75;;
36501;SDS011;25393;46.108;3.390;2023-03-23T01:01:01;5.95;;;1.73;;
36501;SDS011;25393;46.108;3.390;2023-03-23T01:03:26;4.03;;;2.08;;
36501;SDS011;25393;46.108;3.390;2023-03-23T01:05:53;4.55;;;1.42;;
36501;SDS011;25393;46.108;3.390;2023-03-23T01:08:20;3.47;;;1.58;;
36501;SDS011;25393;46.108;3.390;2023-03-23T01:10:46;2.42;;;1.40;;
36501;SDS011;25393;46.108;3.390;2023-03-23T01:13:13;4.13;;;1.70;;
36501;SDS011;25393;46.108;3.390;2023-03-23T01:15:39;3.30;;;1.52;;
36501;SDS011;25393;46.108;3.390;2023-03-23T01:18:05;3.40;;;1.88;;
36501;SDS011;25393;46.108;3.390;2023-03-23T01:20:31;4.70;;;1.95;;
36501;SDS011;25393;46.108;3.390;2023-03-23T01:22:57;2.20;;;1.20;;
36501;SDS011;25393;46.108;3.390;2023-03-23T01:25:29;3.50;;;1.50;;
36501;SDS011;25393;46.108;3.390;2023-03-23T01:27:56;2.90;;;1.58;;
36501;SDS011;25393;46.108;3.390;2023-03-23T01:30:22;3.75;;;1.67;;
36501;SDS011;25393;46.108;3.390;2023-03-23T01:32:48;3.78;;;1.38;;
36501;SDS011;25393;46.108;3.390;2023-03-23T01:35:14;4.80;;;1.55;;
36501;SDS011;25393;46.108;3.390;2023-03-23T01:37:40;6.07;;;1.20;;
36501;SDS011;25393;46.108;3.390;2023-03-23T01:40:06;5.25;;;1.45;;
36501;SDS011;25393;46.108;3.390;2023-03-23T01:42:33;1.80;;;1.30;;
36501;SDS011;25393;46.108;3.390;2023-03-23T01:45:36;3.47;;;1.52;;
36501;SDS011;25393;46.108;3.390;2023-03-23T01:48:18;2.22;;;1.27;;
36501;SDS011;25393;46.108;3.390;2023-03-23T01:50:45;3.10;;;1.60;;
36501;SDS011;25393;46.108;3.390;2023-03-23T01:53:17;2.42;;;1.55;;
36501;SDS011;25393;46.108;3.390;2023-03-23T01:55:43;4.88;;;1.65;;
36501;SDS011;25393;46.108;3.390;2023-03-23T01:58:13;7.15;;;1.30;;
36501;SDS011;25393;46.108;3.390;2023-03-23T02:00:40;2.78;;;1.27;;
36501;SDS011;25393;46.108;3.390;2023-03-23T02:03:07;2.38;;;1.30;;
36501;SDS011;25393;46.108;3.390;2023-03-23T02:05:36;4.22;;;1.58;;
36501;SDS011;25393;46.108;3.390;2023-03-23T02:08:04;3.97;;;1.63;;
36501;SDS011;25393;46.108;3.390;2023-03-23T02:10:34;4.32;;;1.50;;
36501;SDS011;25393;46.108;3.390;2023-03-23T02:13:02;4.25;;;1.50;;
36501;SDS011;25393;46.108;3.390;2023-03-23T02:15:47;3.15;;;1.25;;
36501;SDS011;25393;46.108;3.390;2023-03-23T02:21:25;4.55;;;1.75;;
36501;SDS011;25393;46.108;3.390;2023-03-23T02:24:09;6.80;;;2.03;;
36501;SDS011;25393;46.108;3.390;2023-03-23T02:26:53;5.35;;;1.95;;
36501;SDS011;25393;46.108;3.390;2023-03-23T02:35:23;2.95;;;1.30;;
36501;SDS011;25393;46.108;3.390;2023-03-23T02:38:02;3.15;;;1.55;;
36501;SDS011;25393;46.108;3.390;2023-03-23T02:40:39;2.85;;;1.35;;
36501;SDS011;25393;46.108;3.390;2023-03-23T02:43:09;2.80;;;1.25;;
36501;SDS011;25393;46.108;3.390;2023-03-23T02:45:42;2.15;;;1.45;;
36501;SDS011;25393;46.108;3.390;2023-03-23T02:48:10;2.30;;;1.30;;
36501;SDS011;25393;46.108;3.390;2023-03-23T02:50:42;2.75;;;1.48;;
36501;SDS011;25393;46.108;3.390;2023-03-23T02:53:11;2.35;;;1.40;;
36501;SDS011;25393;46.108;3.390;2023-03-23T02:55:41;3.00;;;1.45;;
36501;SDS011;25393;46.108;3.390;2023-03-23T02:58:12;4.60;;;1.70;;
36501;SDS011;25393;46.108;3.390;2023-03-23T03:00:38;2.65;;;1.52;;
36501;SDS011;25393;46.108;3.390;2023-03-23T03:03:04;2.53;;;1.10;;
36501;SDS011;25393;46.108;3.390;2023-03-23T03:05:36;1.90;;;1.25;;
36501;SDS011;25393;46.108;3.390;2023-03-23T03:11:09;2.38;;;1.30;;
36501;SDS011;25393;46.108;3.390;2023-03-23T03:13:41;2.17;;;1.38;;
36501;SDS011;25393;46.108;3.390;2023-03-23T03:21:45;2.45;;;1.15;;
36501;SDS011;25393;46.108;3.390;2023-03-23T03:24:13;3.28;;;1.58;;
36501;SDS011;25393;46.108;3.390;2023-03-23T03:26:41;3.83;;;1.35;;
36501;SDS011;25393;46.108;3.390;2023-03-23T03:29:16;4.32;;;1.10;;
36501;SDS011;25393;46.108;3.390;2023-03-23T03:31:45;2.72;;;1.13;;
36501;SDS011;25393;46.108;3.390;2023-03-23T03:34:14;1.35;;;1.08;;
36501;SDS011;25393;46.108;3.390;2023-03-23T03:36:43;4.78;;;1.25;;
36501;SDS011;25393;46.108;3.390;2023-03-23T03:39:10;3.85;;;1.20;;
36501;SDS011;25393;46.108;3.390;2023-03-23T03:41:37;1.85;;;1.13;;
36501;SDS011;25393;46.108;3.390;2023-03-23T03:44:04;3.47;;;1.20;;
36501;SDS011;25393;46.108;3.390;2023-03-23T03:46:30;2.60;;;1.52;;
36501;SDS011;25393;46.108;3.390;2023-03-23T03:48:56;3.08;;;1.48;;
36501;SDS011;25393;46.108;3.390;2023-03-23T03:51:23;2.08;;;1.30;;
36501;SDS011;25393;46.108;3.390;2023-03-23T03:53:49;2.00;;;1.27;;
36501;SDS011;25393;46.108;3.390;2023-03-23T03:56:15;1.33;;;1.20;;
36501;SDS011;25393;46.108;3.390;2023-03-23T03:58:41;3.20;;;1.40;;
36501;SDS011;25393;46.108;3.390;2023-03-23T04:01:09;3.80;;;1.30;;
36501;SDS011;25393;46.108;3.390;2023-03-23T04:03:35;1.83;;;1.20;;
36501;SDS011;25393;46.108;3.390;2023-03-23T04:06:01;0.98;;;0.80;;
36501;SDS011;25393;46.108;3.390;2023-03-23T04:08:27;3.80;;;1.85;;
36501;SDS011;25393;46.108;3.390;2023-03-23T04:10:53;2.75;;;1.25;;
36501;SDS011;25393;46.108;3.390;2023-03-23T04:13:19;5.65;;;1.73;;
36501;SDS011;25393;46.108;3.390;2023-03-23T04:15:45;3.47;;;1.40;;
36501;SDS011;25393;46.108;3.390;2023-03-23T04:18:11;5.40;;;1.45;;
36501;SDS011;25393;46.108;3.390;2023-03-23T04:20:37;2.65;;;1.30;;
36501;SDS011;25393;46.108;3.390;2023-03-23T04:23:03;2.88;;;1.48;;
36501;SDS011;25393;46.108;3.390;2023-03-23T04:25:28;1.98;;;1.38;;
36501;SDS011;25393;46.108;3.390;2023-03-23T04:27:58;2.40;;;1.27;;
36501;SDS011;25393;46.108;3.390;2023-03-23T04:30:26;4.38;;;1.80;;
36501;SDS011;25393;46.108;3.390;2023-03-23T04:32:54;1.67;;;1.20;;
36501;SDS011;25393;46.108;3.390;2023-03-23T04:35:20;4.68;;;1.75;;
36501;SDS011;25393;46.108;3.390;2023-03-23T04:37:47;5.85;;;1.73;;
36501;SDS011;25393;46.108;3.390;2023-03-23T04:40:17;2.40;;;1.40;;
36501;SDS011;25393;46.108;3.390;2023-03-23T04:42:43;2.70;;;1.58;;
36501;SDS011;25393;46.108;3.390;2023-03-23T04:45:16;3.75;;;1.45;;
36501;SDS011;25393;46.108;3.390;2023-03-23T04:47:46;5.05;;;1.45;;
36501;SDS011;25393;46.108;3.390;2023-03-23T04:50:22;4.72;;;1.80;;
36501;SDS011;25393;46.108;3.390;2023-03-23T04:52:51;2.67;;;1.27;;
36501;SDS011;25393;46.108;3.390;2023-03-23T04:55:19;2.10;;;1.30;;
36501;SDS011;25393;46.108;3.390;2023-03-23T04:57:48;3.13;;;1.23;;
36501;SDS011;25393;46.108;3.390;2023-03-23T05:00:14;5.05;;;1.58;;
36501;SDS011;25393;46.108;3.390;2023-03-23T05:02:44;2.83;;;1.23;;
36501;SDS011;25393;46.108;3.390;2023-03-23T05:05:16;3.85;;;1.45;;
36501;SDS011;25393;46.108;3.390;2023-03-23T05:07:44;4.10;;;1.10;;
36501;SDS011;25393;46.108;3.390;2023-03-23T05:10:10;2.33;;;1.40;;
36501;SDS011;25393;46.108;3.390;2023-03-23T05:12:36;3.75;;;1.48;;
36501;SDS011;25393;46.108;3.390;2023-03-23T05:15:03;1.88;;;1.35;;
36501;SDS011;25393;46.108;3.390;2023-03-23T05:17:29;4.53;;;1.45;;
36501;SDS011;25393;46.108;3.390;2023-03-23T05:19:55;3.90;;;1.45;;
36501;SDS011;25393;46.108;3.390;2023-03-23T05:22:22;3.72;;;1.52;;
36501;SDS011;25393;46.108;3.390;2023-03-23T05:24:48;2.10;;;1.10;;
36501;SDS011;25393;46.108;3.390;2023-03-23T05:27:19;3.38;;;1.70;;
36501;SDS011;25393;46.108;3.390;2023-03-23T05:29:45;2.30;;;1.30;;
36501;SDS011;25393;46.108;3.390;2023-03-23T05:32:14;2.72;;;1.35;;
36501;SDS011;25393;46.108;3.390;2023-03-23T05:34:45;3.10;;;1.42;;
36501;SDS011;25393;46.108;3.390;2023-03-23T05:37:11;2.72;;;1.48;;
36501;SDS011;25393;46.108;3.390;2023-03-23T05:39:38;2.15;;;1.20;;
36501;SDS011;25393;46.108;3.390;2023-03-23T05:42:05;3.00;;;1.20;;
36501;SDS011;25393;46.108;3.390;2023-03-23T05:44:31;4.03;;;2.20;;
36501;SDS011;25393;46.108;3.390;2023-03-23T05:46:56;3.30;;;1.50;;
36501;SDS011;25393;46.108;3.390;2023-03-23T05:49:22;2.85;;;1.25;;
36501;SDS011;25393;46.108;3.390;2023-03-23T05:51:49;3.13;;;1.80;;
36501;SDS011;25393;46.108;3.390;2023-03-23T05:54:15;3.83;;;1.38;;
36501;SDS011;25393;46.108;3.390;2023-03-23T05:56:41;1.88;;;1.33;;
36501;SDS011;25393;46.108;3.390;2023-03-23T05:59:06;3.90;;;1.95;;
36501;SDS011;25393;46.108;3.390;2023-03-23T06:01:32;4.13;;;1.95;;
36501;SDS011;25393;46.108;3.390;2023-03-23T06:03:57;2.05;;;1.25;;
36501;SDS011;25393;46.108;3.390;2023-03-23T06:06:27;2.03;;;1.30;;
36501;SDS011;25393;46.108;3.390;2023-03-23T06:08:57;1.83;;;1.60;;
36501;SDS011;25393;46.108;3.390;2023-03-23T06:11:23;2.92;;;1.80;;
36501;SDS011;25393;46.108;3.390;2023-03-23T06:13:49;2.95;;;1.80;;
36501;SDS011;25393;46.108;3.390;2023-03-23T06:16:15;2.47;;;1.48;;
36501;SDS011;25393;46.108;3.390;2023-03-23T06:18:40;1.85;;;1.33;;
36501;SDS011;25393;46.108;3.390;2023-03-23T06:21:07;2.28;;;1.40;;
36501;SDS011;25393;46.108;3.390;2023-03-23T06:23:34;4.60;;;1.63;;
36501;SDS011;25393;46.108;3.390;2023-03-23T06:26:00;3.85;;;2.20;;
36501;SDS011;25393;46.108;3.390;2023-03-23T06:28:30;5.85;;;1.95;;
36501;SDS011;25393;46.108;3.390;2023-03-23T06:30:58;3.97;;;1.55;;
36501;SDS011;25393;46.108;3.390;2023-03-23T06:33:24;3.63;;;2.10;;
36501;SDS011;25393;46.108;3.390;2023-03-23T06:35:50;3.28;;;1.60;;
36501;SDS011;25393;46.108;3.390;2023-03-23T06:38:16;4.45;;;1.90;;
36501;SDS011;25393;46.108;3.390;2023-03-23T06:40:42;3.63;;;1.80;;
36501;SDS011;25393;46.108;3.390;2023-03-23T06:43:11;4.00;;;1.52;;
36501;SDS011;25393;46.108;3.390;2023-03-23T06:45:36;2.08;;;1.30;;
36501;SDS011;25393;46.108;3.390;2023-03-23T06:48:02;4.45;;;1.58;;
36501;SDS011;25393;46.108;3.390;2023-03-23T06:50:27;4.68;;;2.05;;
36501;SDS011;25393;46.108;3.390;2023-03-23T06:52:53;2.33;;;1.58;;
36501;SDS011;25393;46.108;3.390;2023-03-23T06:55:27;4.60;;;1.67;;
36501;SDS011;25393;46.108;3.390;2023-03-23T06:57:58;3.97;;;1.60;;
36501;SDS011;25393;46.108;3.390;2023-03-23T07:00:26;3.63;;;1.73;;
36501;SDS011;25393;46.108;3.390;2023-03-23T07:02:52;2.78;;;1.73;;
36501;SDS011;25393;46.108;3.390;2023-03-23T07:05:21;2.65;;;1.75;;
36501;SDS011;25393;46.108;3.390;2023-03-23T07:07:55;2.83;;;1.70;;
36501;SDS011;25393;46.108;3.390;2023-03-23T07:10:20;4.20;;;1.80;;
36501;SDS011;25393;46.108;3.390;2023-03-23T07:12:46;5.18;;;2.50;;
36501;SDS011;25393;46.108;3.390;2023-03-23T07:15:11;3.63;;;2.45;;
36501;SDS011;25393;46.108;3.390;2023-03-23T07:17:37;4.55;;;2.38;;
36501;SDS011;25393;46.108;3.390;2023-03-23T07:20:05;5.60;;;2.88;;
36501;SDS011;25393;46.108;3.390;2023-03-23T07:22:31;8.68;;;3.50;;
36501;SDS011;25393;46.108;3.390;2023-03-23T07:24:57;8.35;;;2.78;;
36501;SDS011;25393;46.108;3.390;2023-03-23T07:27:23;3.88;;;2.20;;
36501;SDS011;25393;46.108;3.390;2023-03-23T07:29:52;4.28;;;2.22;;
36501;SDS011;25393;46.108;3.390;2023-03-23T07:32:17;3.40;;;2.10;;
36501;SDS011;25393;46.108;3.390;2023-03-23T07:34:42;5.97;;;2.42;;
36501;SDS011;25393;46.108;3.390;2023-03-23T07:37:08;3.80;;;2.17;;
36501;SDS011;25393;46.108;3.390;2023-03-23T07:39:34;3.95;;;2.03;;
36501;SDS011;25393;46.108;3.390;2023-03-23T07:42:00;5.68;;;2.67;;
36501;SDS011;25393;46.108;3.390;2023-03-23T07:44:25;8.98;;;3.33;;
36501;SDS011;25393;46.108;3.390;2023-03-23T07:46:51;4.00;;;2.60;;
36501;SDS011;25393;46.108;3.390;2023-03-23T07:49:17;4.93;;;2.35;;
36501;SDS011;25393;46.108;3.390;2023-03-23T07:51:45;3.13;;;1.98;;
36501;SDS011;25393;46.108;3.390;2023-03-23T07:54:11;4.38;;;2.45;;
36501;SDS011;25393;46.108;3.390;2023-03-23T07:56:37;3.13;;;1.98;;
36501;SDS011;25393;46.108;3.390;2023-03-23T07:59:06;6.60;;;2.22;;
36501;SDS011;25393;46.108;3.390;2023-03-23T08:01:32;5.25;;;2.25;;
36501;SDS011;25393;46.108;3.390;2023-03-23T08:03:58;7.97;;;2.30;;
36501;SDS011;25393;46.108;3.390;2023-03-23T08:06:25;6.00;;;2.30;;
36501;SDS011;25393;46.108;3.390;2023-03-23T08:08:51;3.55;;;2.28;;
36501;SDS011;25393;46.108;3.390;2023-03-23T08:11:19;4.03;;;2.42;;
36501;SDS011;25393;46.108;3.390;2023-03-23T08:13:45;3.25;;;2.10;;
36501;SDS011;25393;46.108;3.390;2023-03-23T08:16:11;4.60;;;2.65;;
36501;SDS011;25393;46.108;3.390;2023-03-23T08:18:38;3.65;;;2.22;;
36501;SDS011;25393;46.108;3.390;2023-03-23T08:21:04;6.13;;;2.65;;
36501;SDS011;25393;46.108;3.390;2023-03-23T08:23:31;7.25;;;2.22;;
36501;SDS011;25393;46.108;3.390;2023-03-23T08:25:57;4.90;;;2.00;;
36501;SDS011;25393;46.108;3.390;2023-03-23T08:28:24;5.10;;;2.25;;
36501;SDS011;25393;46.108;3.390;2023-03-23T08:30:49;6.05;;;2.60;;
36501;SDS011;25393;46.108;3.390;2023-03-23T08:33:15;3.95;;;1.95;;
36501;SDS011;25393;46.108;3.390;2023-03-23T08:35:41;4.00;;;2.00;;
36501;SDS011;25393;46.108;3.390;2023-03-23T08:38:09;7.22;;;2.90;;
36501;SDS011;25393;46.108;3.390;2023-03-23T08:40:36;5.70;;;2.30;;
36501;SDS011;25393;46.108;3.390;2023-03-23T08:43:02;4.15;;;2.28;;
36501;SDS011;25393;46.108;3.390;2023-03-23T08:45:27;3.60;;;2.10;;
36501;SDS011;25393;46.108;3.390;2023-03-23T08:47:53;5.93;;;2.08;;
36501;SDS011;25393;46.108;3.390;2023-03-23T08:50:21;2.97;;;1.50;;
36501;SDS011;25393;46.108;3.390;2023-03-23T08:52:49;7.57;;;1.80;;
36501;SDS011;25393;46.108;3.390;2023-03-23T08:55:15;2.10;;;1.50;;
36501;SDS011;25393;46.108;3.390;2023-03-23T08:57:43;3.13;;;1.58;;
36501;SDS011;25393;46.108;3.390;2023-03-23T09:00:11;2.65;;;1.63;;
36501;SDS011;25393;46.108;3.390;2023-03-23T09:02:47;2.72;;;1.52;;
36501;SDS011;25393;46.108;3.390;2023-03-23T09:05:21;1.98;;;1.20;;
36501;SDS011;25393;46.108;3.390;2023-03-23T09:07:50;6.57;;;1.80;;
36501;SDS011;25393;46.108;3.390;2023-03-23T09:10:17;3.22;;;1.48;;
36501;SDS011;25393;46.108;3.390;2023-03-23T09:12:44;2.13;;;1.40;;
36501;SDS011;25393;46.108;3.390;2023-03-23T09:15:12;3.05;;;1.33;;
36501;SDS011;25393;46.108;3.390;2023-03-23T09:17:40;2.95;;;1.40;;
36501;SDS011;25393;46.108;3.390;2023-03-23T09:20:08;4.05;;;1.52;;
36501;SDS011;25393;46.108;3.390;2023-03-23T09:22:39;2.38;;;1.40;;
36501;SDS011;25393;46.108;3.390;2023-03-23T09:25:10;1.60;;;1.40;;
36501;SDS011;25393;46.108;3.390;2023-03-23T09:27:38;3.00;;;1.42;;
36501;SDS011;25393;46.108;3.390;2023-03-23T09:30:05;9.73;;;8.82;;
36501;SDS011;25393;46.108;3.390;2023-03-23T09:32:33;5.65;;;3.35;;
36501;SDS011;25393;46.108;3.390;2023-03-23T09:35:03;5.43;;;3.72;;
36501;SDS011;25393;46.108;3.390;2023-03-23T09:37:33;6.13;;;3.58;;
36501;SDS011;25393;46.108;3.390;2023-03-23T09:40:00;3.75;;;2.70;;
36501;SDS011;25393;46.108;3.390;2023-03-23T09:42:46;4.28;;;3.88;;
36501;SDS011;25393;46.108;3.390;2023-03-23T09:45:33;4.95;;;4.65;;
36501;SDS011;25393;46.108;3.390;2023-03-23T09:50:55;4.35;;;4.05;;
36501;SDS011;25393;46.108;3.390;2023-03-23T09:53:36;4.53;;;3.50;;
36501;SDS011;25393;46.108;3.390;2023-03-23T09:56:08;3.85;;;3.55;;
36501;SDS011;25393;46.108;3.390;2023-03-23T09:58:43;3.83;;;3.53;;
36501;SDS011;25393;46.108;3.390;2023-03-23T10:01:17;3.25;;;3.03;;
36501;SDS011;25393;46.108;3.390;2023-03-23T10:04:02;3.55;;;3.25;;
36501;SDS011;25393;46.108;3.390;2023-03-23T10:06:35;6.05;;;3.60;;
36501;SDS011;25393;46.108;3.390;2023-03-23T10:09:02;3.70;;;3.40;;
36501;SDS011;25393;46.108;3.390;2023-03-23T10:16:50;4.10;;;3.40;;
36501;SDS011;25393;46.108;3.390;2023-03-23T10:19:28;3.58;;;3.38;;
36501;SDS011;25393;46.108;3.390;2023-03-23T10:22:03;5.03;;;3.50;;
36501;SDS011;25393;46.108;3.390;2023-03-23T10:24:35;3.45;;;3.25;;
36501;SDS011;25393;46.108;3.390;2023-03-23T10:27:18;4.40;;;4.00;;
36501;SDS011;25393;46.108;3.390;2023-03-23T10:29:58;5.10;;;4.00;;
36501;SDS011;25393;46.108;3.390;2023-03-23T10:32:39;3.65;;;3.33;;
36501;SDS011;25393;46.108;3.390;2023-03-23T10:35:14;4.20;;;3.80;;
36501;SDS011;25393;46.108;3.390;2023-03-23T10:37:47;4.13;;;3.58;;
36501;SDS011;25393;46.108;3.390;2023-03-23T10:40:27;4.07;;;3.78;;
36501;SDS011;25393;46.108;3.390;2023-03-23T10:42:55;3.92;;;3.63;;
36501;SDS011;25393;46.108;3.390;2023-03-23T10:45:30;3.83;;;3.38;;
36501;SDS011;25393;46.108;3.390;2023-03-23T10:48:12;4.78;;;3.75;;
36501;SDS011;25393;46.108;3.390;2023-03-23T10:50:44;5.35;;;3.65;;
36501;SDS011;25393;46.108;3.390;2023-03-23T10:53:25;3.85;;;3.50;;
36501;SDS011;25393;46.108;3.390;2023-03-23T10:55:57;5.10;;;3.67;;
36501;SDS011;25393;46.108;3.390;2023-03-23T10:58:31;4.32;;;3.53;;
36501;SDS011;25393;46.108;3.390;2023-03-23T11:00:59;5.22;;;3.45;;
36501;SDS011;25393;46.108;3.390;2023-03-23T11:06:11;3.33;;;3.08;;
36501;SDS011;25393;46.108;3.390;2023-03-23T11:08:48;3.88;;;3.53;;
36501;SDS011;25393;46.108;3.390;2023-03-23T11:11:41;3.95;;;3.55;;
36501;SDS011;25393;46.108;3.390;2023-03-23T11:14:33;5.53;;;3.05;;
36501;SDS011;25393;46.108;3.390;2023-03-23T11:17:03;3.38;;;3.05;;
36501;SDS011;25393;46.108;3.390;2023-03-23T11:19:35;4.97;;;2.80;;
36501;SDS011;25393;46.108;3.390;2023-03-23T11:22:13;3.38;;;3.08;;
36501;SDS011;25393;46.108;3.390;2023-03-23T11:24:46;3.70;;;3.40;;
36501;SDS011;25393;46.108;3.390;2023-03-23T11:27:17;4.18;;;3.60;;
36501;SDS011;25393;46.108;3.390;2023-03-23T11:29:55;4.10;;;3.70;;
36501;SDS011;25393;46.108;3.390;2023-03-23T11:32:26;3.97;;;3.50;;
36501;SDS011;25393;46.108;3.390;2023-03-23T11:34:55;3.72;;;3.42;;
36501;SDS011;25393;46.108;3.390;2023-03-23T11:37:43;5.35;;;3.40;;
36501;SDS011;25393;46.108;3.390;2023-03-23T11:40:17;5.05;;;3.67;;
36501;SDS011;25393;46.108;3.390;2023-03-23T11:45:33;4.63;;;3.60;;
36501;SDS011;25393;46.108;3.390;2023-03-23T11:50:48;3.53;;;3.22;;
36501;SDS011;25393;46.108;3.390;2023-03-23T11:53:27;3.00;;;2.58;;
36501;SDS011;25393;46.108;3.390;2023-03-23T11:58:51;3.78;;;1.20;;
36501;SDS011;25393;46.108;3.390;2023-03-23T12:04:25;2.22;;;1.25;;
36501;SDS011;25393;46.108;3.390;2023-03-23T12:21:08;1.23;;;1.13;;
36501;SDS011;25393;46.108;3.390;2023-03-23T12:23:50;1.70;;;1.25;;
36501;SDS011;25393;46.108;3.390;2023-03-23T12:26:33;7.30;;;1.30;;
36501;SDS011;25393;46.108;3.390;2023-03-23T12:29:16;3.20;;;1.23;;
36501;SDS011;25393;46.108;3.390;2023-03-23T12:42:29;3.80;;;3.50;;
36501;SDS011;25393;46.108;3.390;2023-03-23T12:45:21;2.50;;;2.05;;
36501;SDS011;25393;46.108;3.390;2023-03-23T12:48:04;5.32;;;1.67;;
36501;SDS011;25393;46.108;3.390;2023-03-23T12:50:41;5.57;;;1.60;;
36501;SDS011;25393;46.108;3.390;2023-03-23T12:53:17;2.85;;;1.42;;
36501;SDS011;25393;46.108;3.390;2023-03-23T13:02:19;1.70;;;1.23;;
36501;SDS011;25393;46.108;3.390;2023-03-23T13:05:05;2.28;;;1.27;;
36501;SDS011;25393;46.108;3.390;2023-03-23T13:07:41;3.38;;;1.88;;
36501;SDS011;25393;46.108;3.390;2023-03-23T13:10:19;1.45;;;1.20;;
36501;SDS011;25393;46.108;3.390;2023-03-23T13:12:49;3.83;;;2.65;;
36501;SDS011;25393;46.108;3.390;2023-03-23T13:15:35;1.85;;;1.30;;
36501;SDS011;25393;46.108;3.390;2023-03-23T13:23:33;6.47;;;6.07;;
36501;SDS011;25393;46.108;3.390;2023-03-23T13:26:03;3.13;;;1.48;;
36501;SDS011;25393;46.108;3.390;2023-03-23T13:28:34;3.78;;;2.13;;
36501;SDS011;25393;46.108;3.390;2023-03-23T13:31:17;4.15;;;1.80;;
36501;SDS011;25393;46.108;3.390;2023-03-23T13:36:55;2.35;;;1.42;;
36501;SDS011;25393;46.108;3.390;2023-03-23T13:39:28;2.08;;;1.13;;
36501;SDS011;25393;46.108;3.390;2023-03-23T13:42:16;2.28;;;1.50;;
36501;SDS011;25393;46.108;3.390;2023-03-23T13:47:21;2.33;;;1.42;;
36501;SDS011;25393;46.108;3.390;2023-03-23T13:49:57;2.67;;;1.20;;
36501;SDS011;25393;46.108;3.390;2023-03-23T13:58:26;1.70;;;1.10;;
36501;SDS011;25393;46.108;3.390;2023-03-23T14:03:14;4.72;;;1.25;;
36501;SDS011;25393;46.108;3.390;2023-03-23T14:05:51;2.40;;;1.63;;
36501;SDS011;25393;46.108;3.390;2023-03-23T14:16:02;2.95;;;1.52;;
36501;SDS011;25393;46.108;3.390;2023-03-23T14:18:32;5.25;;;1.45;;
36501;SDS011;25393;46.108;3.390;2023-03-23T14:21:03;5.18;;;1.65;;
36501;SDS011;25393;46.108;3.390;2023-03-23T14:23:30;3.33;;;1.55;;
36501;SDS011;25393;46.108;3.390;2023-03-23T14:26:02;2.40;;;1.70;;
36501;SDS011;25393;46.108;3.390;2023-03-23T14:28:39;4.35;;;1.52;;
36501;SDS011;25393;46.108;3.390;2023-03-23T14:31:25;2.15;;;1.83;;
36501;SDS011;25393;46.108;3.390;2023-03-23T14:33:54;4.05;;;2.25;;
36501;SDS011;25393;46.108;3.390;2023-03-23T14:36:27;4.10;;;2.60;;
36501;SDS011;25393;46.108;3.390;2023-03-23T14:38:55;2.63;;;2.40;;
36501;SDS011;25393;46.108;3.390;2023-03-23T14:41:27;4.40;;;2.95;;
36501;SDS011;25393;46.108;3.390;2023-03-23T14:44:01;7.70;;;3.00;;
36501;SDS011;25393;46.108;3.390;2023-03-23T14:46:34;4.93;;;3.05;;
36501;SDS011;25393;46.108;3.390;2023-03-23T14:49:02;3.83;;;2.95;;
36501;SDS011;25393;46.108;3.390;2023-03-23T14:51:29;4.90;;;3.58;;
36501;SDS011;25393;46.108;3.390;2023-03-23T14:53:55;4.57;;;3.30;;
36501;SDS011;25393;46.108;3.390;2023-03-23T14:56:32;5.85;;;3.55;;
36501;SDS011;25393;46.108;3.390;2023-03-23T14:59:05;4.45;;;3.00;;
36501;SDS011;25393;46.108;3.390;2023-03-23T15:01:33;2.78;;;2.33;;
36501;SDS011;25393;46.108;3.390;2023-03-23T15:06:32;3.55;;;1.20;;
36501;SDS011;25393;46.108;3.390;2023-03-23T15:09:02;2.83;;;1.30;;
36501;SDS011;25393;46.108;3.390;2023-03-23T15:11:34;3.45;;;1.40;;
36501;SDS011;25393;46.108;3.390;2023-03-23T15:14:07;6.78;;;4.05;;
36501;SDS011;25393;46.108;3.390;2023-03-23T15:16:44;5.30;;;3.70;;
36501;SDS011;25393;46.108;3.390;2023-03-23T15:19:16;4.68;;;3.70;;
36501;SDS011;25393;46.108;3.390;2023-03-23T15:21:46;5.32;;;3.25;;
36501;SDS011;25393;46.108;3.390;2023-03-23T15:24:32;3.70;;;3.40;;
36501;SDS011;25393;46.108;3.390;2023-03-23T15:27:17;4.85;;;3.38;;
36501;SDS011;25393;46.108;3.390;2023-03-23T15:29:51;6.00;;;3.10;;
36501;SDS011;25393;46.108;3.390;2023-03-23T15:32:22;3.97;;;3.60;;
36501;SDS011;25393;46.108;3.390;2023-03-23T15:34:56;5.45;;;3.33;;
36501;SDS011;25393;46.108;3.390;2023-03-23T15:37:30;5.90;;;3.70;;
36501;SDS011;25393;46.108;3.390;2023-03-23T15:39:57;20.52;;;4.68;;
36501;SDS011;25393;46.108;3.390;2023-03-23T15:42:29;3.90;;;3.50;;
36501;SDS011;25393;46.108;3.390;2023-03-23T15:50:19;2.10;;;1.20;;
36501;SDS011;25393;46.108;3.390;2023-03-23T15:52:58;6.60;;;2.20;;
36501;SDS011;25393;46.108;3.390;2023-03-23T15:55:24;4.93;;;2.35;;
36501;SDS011;25393;46.108;3.390;2023-03-23T15:57:53;4.53;;;1.40;;
36501;SDS011;25393;46.108;3.390;2023-03-23T16:00:21;8.25;;;2.53;;
36501;SDS011;25393;46.108;3.390;2023-03-23T16:02:51;8.63;;;2.50;;
36501;SDS011;25393;46.108;3.390;2023-03-23T16:05:27;3.85;;;2.25;;
36501;SDS011;25393;46.108;3.390;2023-03-23T16:07:53;4.93;;;2.25;;
36501;SDS011;25393;46.108;3.390;2023-03-23T16:10:22;5.70;;;2.40;;
36501;SDS011;25393;46.108;3.390;2023-03-23T16:12:49;7.15;;;2.30;;
36501;SDS011;25393;46.108;3.390;2023-03-23T16:15:16;4.93;;;2.00;;
36501;SDS011;25393;46.108;3.390;2023-03-23T16:17:43;4.50;;;2.13;;
36501;SDS011;25393;46.108;3.390;2023-03-23T16:20:15;4.75;;;2.13;;
36501;SDS011;25393;46.108;3.390;2023-03-23T16:22:47;10.60;;;2.50;;
36501;SDS011;25393;46.108;3.390;2023-03-23T16:25:14;4.45;;;1.95;;
36501;SDS011;25393;46.108;3.390;2023-03-23T16:27:41;5.68;;;2.28;;
36501;SDS011;25393;46.108;3.390;2023-03-23T16:30:12;4.50;;;2.10;;
36501;SDS011;25393;46.108;3.390;2023-03-23T16:32:41;7.95;;;2.13;;
36501;SDS011;25393;46.108;3.390;2023-03-23T16:35:07;4.30;;;1.85;;
36501;SDS011;25393;46.108;3.390;2023-03-23T16:37:34;4.53;;;1.90;;
36501;SDS011;25393;46.108;3.390;2023-03-23T16:40:02;3.40;;;1.40;;
36501;SDS011;25393;46.108;3.390;2023-03-23T16:42:29;5.97;;;1.40;;
36501;SDS011;25393;46.108;3.390;2023-03-23T16:44:58;3.67;;;1.60;;
36501;SDS011;25393;46.108;3.390;2023-03-23T16:47:24;2.70;;;1.27;;
36501;SDS011;25393;46.108;3.390;2023-03-23T16:49:51;2.58;;;1.35;;
36501;SDS011;25393;46.108;3.390;2023-03-23T16:52:19;1.88;;;1.15;;
36501;SDS011;25393;46.108;3.390;2023-03-23T16:54:46;3.80;;;1.42;;